Time;durP1;ratioP1;P1;durP2;ratioP2;P2;SDS_P1;SDS_P2;PMS_P1;PMS_P2;Temp;Humidity;BMP_temperature;BMP_pressure;BME280_temperature;BME280_humidity;BME280_pressure;Samples;Min_cycle;Max_cycle;Signal;HPM_P1;HPM_P2
2023/05/17 00:01:06;;;;;;;9.43;1.98;;;;;;;7.50;100.00;102424.63;4987867;28;20878;-85
2023/05/17 00:03:53;;;;;;;7.80;1.50;;;;;;;7.47;100.00;102428.16;4986640;28;20068;-84
2023/05/17 00:06:37;;;;;;;10.25;2.22;;;;;;;7.45;100.00;102435.19;4984392;28;20069;-84
2023/05/17 00:09:21;;;;;;;7.82;1.70;;;;;;;7.42;100.00;102437.84;4986657;28;20061;-83
2023/05/17 00:12:05;;;;;;;8.82;1.58;;;;;;;7.41;100.00;102429.97;4985637;28;20115;-84
2023/05/17 00:14:50;;;;;;;9.20;2.08;;;;;;;7.39;100.00;102435.22;4986523;28;20046;-86
2023/05/17 00:17:36;;;;;;;5.43;2.03;;;;;;;7.38;100.00;102430.84;4986612;28;20607;-85
2023/05/17 00:20:20;;;;;;;5.97;1.73;;;;;;;7.37;100.00;102438.75;4972459;28;20053;-84
2023/05/17 00:23:04;;;;;;;8.27;2.13;;;;;;;7.32;100.00;102436.16;4997098;28;20516;-86
2023/05/17 00:25:48;;;;;;;10.85;2.10;;;;;;;7.28;100.00;102435.31;4998565;28;20141;-86
2023/05/17 00:28:42;;;;;;;12.23;2.28;;;;;;;7.25;100.00;102440.56;4986480;28;20408;-84
2023/05/17 00:31:26;;;;;;;9.68;2.13;;;;;;;7.22;100.00;102451.16;4986897;28;20994;-85
2023/05/17 00:34:11;;;;;;;8.32;1.98;;;;;;;7.17;100.00;102442.38;4976882;28;20037;-86
2023/05/17 00:36:55;;;;;;;9.05;1.77;;;;;;;7.14;100.00;102445.91;4984241;28;21162;-86
2023/05/17 00:39:39;;;;;;;11.05;1.90;;;;;;;7.08;100.00;102443.31;4987276;28;20180;-85
2023/05/17 00:42:23;;;;;;;7.07;1.92;;;;;;;7.07;100.00;102441.56;4984709;28;20467;-85
2023/05/17 00:45:16;;;;;;;9.27;1.77;;;;;;;7.03;100.00;102438.06;4983855;28;20048;-84
2023/05/17 00:48:00;;;;;;;9.77;1.90;;;;;;;7.01;100.00;102437.22;4991141;28;20096;-85
2023/05/17 00:50:46;;;;;;;7.82;2.03;;;;;;;6.98;100.00;102431.09;4986135;28;20192;-85
2023/05/17 00:53:30;;;;;;;4.25;1.83;;;;;;;6.94;100.00;102440.75;4960771;28;20161;-85
2023/05/17 00:56:15;;;;;;;6.35;1.83;;;;;;;6.91;100.00;102436.38;4985914;28;20155;-85
2023/05/17 00:58:59;;;;;;;7.30;1.92;;;;;;;6.89;100.00;102438.16;4985629;28;20053;-86
2023/05/17 01:01:44;;;;;;;8.02;2.10;;;;;;;6.84;100.00;102434.66;4991170;28;20116;-85
2023/05/17 01:04:28;;;;;;;7.13;1.83;;;;;;;6.79;100.00;102424.16;5000986;28;20061;-86
2023/05/17 01:07:12;;;;;;;11.15;2.35;;;;;;;6.77;100.00;102427.66;4989227;28;20947;-85
2023/05/17 01:09:57;;;;;;;9.55;1.33;;;;;;;6.77;100.00;102432.94;4980946;28;20180;-85
2023/05/17 01:12:56;;;;;;;8.23;1.52;;;;;;;6.76;100.00;102436.44;4990067;28;20120;-85
2023/05/17 01:15:45;;;;;;;7.88;1.77;;;;;;;6.73;100.00;102439.06;5010196;28;20704;-85
2023/05/17 01:18:43;;;;;;;4.22;1.80;;;;;;;6.69;100.00;102440.84;4994868;28;20076;-84
2023/05/17 01:21:58;;;;;;;8.05;1.70;;;;;;;6.70;100.00;102437.31;4998806;28;20107;-84
2023/05/17 01:24:58;;;;;;;7.25;1.80;;;;;;;6.70;100.00;102439.09;4996770;28;20060;-84
2023/05/17 01:27:47;;;;;;;9.52;1.60;;;;;;;6.72;100.00;102434.69;5011866;28;20100;-85
2023/05/17 01:30:36;;;;;;;5.60;1.88;;;;;;;6.74;100.00;102433.81;4997647;28;20044;-85
2023/05/17 01:33:30;;;;;;;6.15;1.65;;;;;;;6.74;100.00;102431.19;5010516;28;20040;-85
2023/05/17 01:36:15;;;;;;;11.55;1.75;;;;;;;6.74;100.00;102433.81;5012904;28;20057;-84
2023/05/17 01:39:00;;;;;;;9.23;1.63;;;;;;;6.76;100.00;102436.44;5010393;28;20060;-85
2023/05/17 01:42:01;;;;;;;13.48;1.85;;;;;;;6.78;100.00;102450.47;4991891;28;20607;-86
2023/05/17 01:45:11;;;;;;;10.85;1.75;;;;;;;6.80;100.00;102448.69;4980023;28;20074;-84
2023/05/17 01:48:17;;;;;;;6.72;1.60;;;;;;;6.83;100.00;102447.81;4990244;28;20158;-85
2023/05/17 01:51:01;;;;;;;7.60;2.00;;;;;;;6.84;100.00;102446.94;4991102;28;20100;-86
2023/05/17 01:53:48;;;;;;;6.53;1.95;;;;;;;6.85;100.00;102446.94;4989775;28;20978;-85
2023/05/17 01:56:33;;;;;;;4.95;1.30;;;;;;;6.87;100.00;102445.16;4987918;28;20052;-85
2023/05/17 01:59:20;;;;;;;4.53;1.45;;;;;;;6.87;100.00;102444.28;4991261;28;20084;-86
2023/05/17 02:02:10;;;;;;;5.22;1.60;;;;;;;6.89;100.00;102446.03;4993813;28;20582;-84
2023/05/17 02:04:55;;;;;;;10.30;1.58;;;;;;;6.92;100.00;102447.78;4991006;28;20108;-85
2023/05/17 02:07:44;;;;;;;7.30;1.40;;;;;;;6.93;100.00;102450.41;4990047;28;20077;-85
2023/05/17 02:10:28;;;;;;;6.65;1.63;;;;;;;6.95;100.00;102447.75;4989539;28;20057;-84
2023/05/17 02:13:15;;;;;;;6.70;1.40;;;;;;;6.95;100.00;102450.41;5000763;28;20067;-86
2023/05/17 02:16:00;;;;;;;6.22;1.30;;;;;;;6.97;100.00;102461.78;4990375;28;20084;-83
2023/05/17 02:18:44;;;;;;;8.38;1.73;;;;;;;6.96;100.00;102462.69;4989179;28;20052;-86
2023/05/17 02:21:28;;;;;;;6.53;1.40;;;;;;;6.94;100.00;102459.19;4989608;28;20058;-84
2023/05/17 02:24:12;;;;;;;7.68;1.48;;;;;;;6.92;100.00;102464.44;4989424;28;20780;-89
2023/05/17 02:26:56;;;;;;;9.35;1.98;;;;;;;6.90;100.00;102467.97;4988026;28;20108;-86
2023/05/17 02:29:43;;;;;;;4.75;1.42;;;;;;;6.90;100.00;102467.97;4983612;28;20048;-86
2023/05/17 02:32:28;;;;;;;7.60;1.80;;;;;;;6.89;100.00;102472.38;4986886;28;20045;-87
2023/05/17 02:35:12;;;;;;;7.15;1.40;;;;;;;6.88;100.00;102477.66;4990088;28;20642;-84
2023/05/17 02:37:57;;;;;;;4.47;1.45;;;;;;;6.84;100.00;102476.78;4993008;28;20196;-83
2023/05/17 02:40:45;;;;;;;4.70;1.33;;;;;;;6.79;100.00;102482.06;4983696;28;20034;-86
2023/05/17 02:43:29;;;;;;;7.18;1.77;;;;;;;6.77;100.00;102478.53;4990919;28;20073;-87
2023/05/17 02:46:17;;;;;;;6.65;1.50;;;;;;;6.74;100.00;102475.03;4988306;28;20512;-91
2023/05/17 02:49:01;;;;;;;7.10;1.45;;;;;;;6.73;100.00;102483.81;4989444;28;20082;-86
2023/05/17 02:51:45;;;;;;;4.28;1.50;;;;;;;6.72;100.00;102484.72;4993759;28;20088;-85
2023/05/17 02:54:29;;;;;;;6.47;1.40;;;;;;;6.69;100.00;102482.97;4989948;28;20065;-87
2023/05/17 02:57:13;;;;;;;3.58;1.65;;;;;;;6.65;100.00;102490.00;4991142;28;20080;-85
2023/05/17 02:59:57;;;;;;;4.93;1.20;;;;;;;6.62;100.00;102497.03;4989224;28;20528;-85
2023/05/17 03:02:50;;;;;;;5.97;1.70;;;;;;;6.60;100.00;102486.47;4992223;28;20088;-87
2023/05/17 03:05:35;;;;;;;2.53;1.00;;;;;;;6.60;100.00;102493.53;4991743;28;20050;-85
2023/05/17 03:08:19;;;;;;;10.35;2.05;;;;;;;6.58;100.00;102484.75;4985663;28;20400;-88
2023/05/17 03:11:03;;;;;;;6.57;1.33;;;;;;;6.56;100.00;102489.13;4989881;28;20116;-87
2023/05/17 03:13:50;;;;;;;7.00;1.60;;;;;;;6.56;100.00;102492.66;4988869;28;20532;-86
2023/05/17 03:16:35;;;;;;;4.88;1.50;;;;;;;6.57;100.00;102489.13;4991692;28;20073;-86
2023/05/17 03:19:19;;;;;;;3.53;1.30;;;;;;;6.57;100.00;102493.50;4989814;28;20063;-86
2023/05/17 03:22:02;;;;;;;2.08;1.15;;;;;;;6.57;100.00;102493.50;4993771;28;20045;-86
2023/05/17 03:24:47;;;;;;;3.53;1.20;;;;;;;6.56;100.00;102491.75;4982691;28;20053;-85
2023/05/17 03:27:31;;;;;;;5.50;1.20;;;;;;;6.58;100.00;102495.28;4970201;28;20116;-85
2023/05/17 03:30:15;;;;;;;4.50;1.10;;;;;;;6.61;100.00;102501.44;4980767;28;21907;-86
2023/05/17 03:32:59;;;;;;;6.25;1.60;;;;;;;6.61;100.00;102508.44;4989402;28;20083;-86
2023/05/17 03:35:45;;;;;;;3.08;1.38;;;;;;;6.60;100.00;102515.44;4976761;28;20053;-86
2023/05/17 03:38:29;;;;;;;10.32;1.65;;;;;;;6.61;100.00;102519.84;4990693;28;20061;-87
2023/05/17 03:41:14;;;;;;;4.35;1.27;;;;;;;6.61;100.00;102521.59;4990804;28;20516;-85
2023/05/17 03:43:59;;;;;;;9.15;1.83;;;;;;;6.62;100.00;102526.84;4987573;28;20148;-86
2023/05/17 03:46:44;;;;;;;7.57;1.38;;;;;;;6.61;100.00;102526.84;4996552;28;20053;-85
2023/05/17 03:49:27;;;;;;;10.15;2.10;;;;;;;6.60;100.00;102520.69;4989082;28;20650;-87
2023/05/17 03:52:12;;;;;;;3.88;1.17;;;;;;;6.62;100.00;102521.59;4989055;28;20045;-85
2023/05/17 03:54:56;;;;;;;5.18;1.38;;;;;;;6.69;100.00;102537.38;4992618;28;21867;-85
2023/05/17 03:57:40;;;;;;;5.68;1.20;;;;;;;6.70;100.00;102528.59;4991720;28;20053;-85
2023/05/17 04:00:24;;;;;;;1.00;0.88;;;;;;;6.76;100.00;102536.47;4990458;28;21963;-84
2023/05/17 04:03:11;;;;;;;5.60;1.20;;;;;;;6.81;100.00;102539.97;4987539;28;20088;-86
2023/05/17 04:06:07;;;;;;;4.18;1.17;;;;;;;6.88;100.00;102541.72;4989029;28;20077;-85
2023/05/17 04:08:53;;;;;;;4.57;1.30;;;;;;;6.96;100.00;102548.72;5004035;28;20044;-86
2023/05/17 04:11:43;;;;;;;6.63;1.50;;;;;;;7.00;100.00;102551.34;4987957;28;20057;-84
2023/05/17 04:14:27;;;;;;;6.85;1.20;;;;;;;7.03;100.00;102556.56;5004394;28;20038;-86
2023/05/17 04:17:11;;;;;;;3.35;0.90;;;;;;;7.06;100.00;102553.94;4991570;28;20088;-86
2023/05/17 04:19:55;;;;;;;4.00;1.20;;;;;;;7.05;100.00;102560.09;4992433;28;20903;-87
2023/05/17 04:22:40;;;;;;;4.43;1.00;;;;;;;7.04;100.00;102565.38;4993595;28;20077;-86
2023/05/17 04:25:24;;;;;;;5.25;1.20;;;;;;;7.01;100.00;102568.88;4978563;28;20053;-85
2023/05/17 04:28:08;;;;;;;4.05;1.08;;;;;;;7.01;100.00;102573.25;4995054;28;20108;-88
2023/05/17 04:30:53;;;;;;;3.65;1.30;;;;;;;7.04;100.00;102578.53;4993950;28;20085;-86
2023/05/17 04:33:37;;;;;;;3.05;1.10;;;;;;;7.03;100.00;102584.69;4993963;28;20146;-89
2023/05/17 04:36:25;;;;;;;4.43;1.10;;;;;;;7.02;100.00;102585.53;5002194;23;20444;-86
2023/05/17 04:39:09;;;;;;;3.90;1.08;;;;;;;6.98;100.00;102594.34;5021361;28;20588;-84
2023/05/17 04:41:53;;;;;;;3.50;1.00;;;;;;;6.94;100.00;102596.13;5019829;28;20641;-86
2023/05/17 04:44:37;;;;;;;2.13;0.80;;;;;;;6.91;100.00;102597.00;5019710;28;20059;-85
2023/05/17 04:47:21;;;;;;;5.20;1.13;;;;;;;6.90;100.00;102599.63;5017547;28;20129;-85
2023/05/17 04:50:06;;;;;;;5.70;1.35;;;;;;;6.89;100.00;102597.88;5019634;28;21023;-86
2023/05/17 04:52:50;;;;;;;3.38;0.85;;;;;;;6.89;100.00;102606.66;5016622;28;20080;-84
2023/05/17 04:55:44;;;;;;;2.17;1.08;;;;;;;6.92;100.00;102605.78;5014660;28;20115;-84
2023/05/17 04:58:29;;;;;;;3.90;0.98;;;;;;;6.93;100.00;102613.66;5015535;28;20083;-84
2023/05/17 05:01:15;;;;;;;3.85;1.30;;;;;;;6.97;100.00;102622.44;5014514;28;20114;-84
2023/05/17 05:03:59;;;;;;;2.10;0.90;;;;;;;7.02;100.00;102622.41;5014739;28;20060;-85
2023/05/17 05:06:43;;;;;;;1.52;0.93;;;;;;;7.05;100.00;102625.06;5015459;28;20518;-84
2023/05/17 05:09:27;;;;;;;3.05;1.13;;;;;;;7.08;100.00;102627.69;5015834;28;20529;-85
2023/05/17 05:12:11;;;;;;;2.58;1.27;;;;;;;7.15;100.00;102633.81;5015964;28;20072;-85
2023/05/17 05:14:56;;;;;;;3.50;1.10;;;;;;;7.19;100.00;102639.06;5017692;28;20084;-84
2023/05/17 05:17:40;;;;;;;0.98;0.80;;;;;;;7.24;100.00;102643.47;5002172;28;20594;-85
2023/05/17 05:20:24;;;;;;;3.67;1.30;;;;;;;7.30;100.00;102648.72;5016010;28;20043;-85
2023/05/17 05:23:09;;;;;;;6.20;1.10;;;;;;;7.33;100.00;102654.84;5012494;28;20088;-85
2023/05/17 05:25:54;;;;;;;4.43;1.15;;;;;;;7.39;100.00;102647.78;5014010;28;20145;-82
2023/05/17 05:28:38;;;;;;;7.25;1.02;;;;;;;7.44;100.00;102662.72;5012717;28;20059;-84
2023/05/17 05:31:22;;;;;;;3.08;1.10;;;;;;;7.57;100.00;102663.56;5013072;28;20527;-84
2023/05/17 05:34:06;;;;;;;3.22;1.45;;;;;;;7.65;100.00;102658.25;5012195;28;20068;-84
2023/05/17 05:36:51;;;;;;;4.07;1.10;;;;;;;7.73;100.00;102666.13;5024860;28;20083;-84
2023/05/17 05:39:35;;;;;;;4.53;1.10;;;;;;;7.78;100.00;102660.84;5014494;28;20079;-83
2023/05/17 05:42:19;;;;;;;5.53;1.05;;;;;;;7.81;100.00;102663.47;5016772;28;20456;-84
2023/05/17 05:45:03;;;;;;;3.05;0.98;;;;;;;7.85;100.00;102663.44;5011692;28;20127;-85
2023/05/17 05:47:54;;;;;;;3.33;0.88;;;;;;;7.88;100.00;102663.44;5015585;28;20064;-86
2023/05/17 05:50:43;;;;;;;3.55;1.20;;;;;;;7.90;100.00;102668.69;5002753;28;20088;-83
2023/05/17 05:53:27;;;;;;;1.98;1.00;;;;;;;7.91;100.00;102672.19;5031083;28;20440;-82
2023/05/17 05:56:11;;;;;;;4.70;1.25;;;;;;;7.92;100.00;102679.22;5003494;28;21314;-84
2023/05/17 05:58:59;;;;;;;4.68;1.05;;;;;;;7.92;100.00;102688.03;5014146;28;20052;-85
2023/05/17 06:01:44;;;;;;;2.17;0.98;;;;;;;7.92;100.00;102689.78;5012871;28;20056;-85
2023/05/17 06:04:29;;;;;;;6.72;1.23;;;;;;;7.95;100.00;102700.31;5011686;28;20060;-87
2023/05/17 06:07:13;;;;;;;6.38;1.30;;;;;;;7.98;100.00;102702.94;5015038;28;20115;-87
2023/05/17 06:09:57;;;;;;;2.58;1.38;;;;;;;8.07;100.00;102699.38;5014494;28;20044;-85
2023/05/17 06:12:42;;;;;;;3.65;1.25;;;;;;;8.21;100.00;102699.28;5012991;28;20289;-86
2023/05/17 06:15:26;;;;;;;8.60;2.28;;;;;;;8.41;100.00;102704.47;5018185;28;20125;-86
2023/05/17 06:18:11;;;;;;;7.70;1.40;;;;;;;8.60;100.00;102707.00;5022590;28;20526;-90
2023/05/17 06:20:55;;;;;;;3.80;1.35;;;;;;;8.70;100.00;102711.31;5019440;28;20052;-86
2023/05/17 06:23:47;;;;;;;4.78;1.23;;;;;;;8.78;100.00;102721.84;5003958;28;20049;-88
2023/05/17 06:26:32;;;;;;;9.95;1.63;;;;;;;8.92;100.00;102719.97;5002233;28;20054;-80
2023/05/17 06:29:16;;;;;;;6.65;1.70;;;;;;;9.03;100.00;102717.22;5017211;28;20072;-82
2023/05/17 06:32:00;;;;;;;8.55;1.40;;;;;;;9.06;99.40;102726.88;5016738;28;21742;-78
2023/05/17 06:34:47;;;;;;;4.18;0.93;;;;;;;9.09;98.67;102737.41;5033055;28;20095;-79
2023/05/17 06:37:41;;;;;;;3.67;1.13;;;;;;;9.08;96.82;102747.13;5020761;28;20117;-82
2023/05/17 06:40:25;;;;;;;4.90;1.20;;;;;;;9.04;96.72;102747.19;5019893;28;20092;-79
2023/05/17 06:43:41;;;;;;;6.70;1.30;;;;;;;8.96;95.79;102752.50;5126933;22;20062;-80
2023/05/17 06:46:28;;;;;;;3.67;1.40;;;;;;;8.95;98.20;102753.41;4962150;28;20069;-78
2023/05/17 06:49:12;;;;;;;4.28;1.17;;;;;;;8.97;98.99;102759.53;4948575;28;20061;-79
2023/05/17 06:52:01;;;;;;;5.10;1.63;;;;;;;8.94;97.65;102767.50;4963333;28;20149;-78
2023/05/17 06:54:46;;;;;;;6.50;1.30;;;;;;;8.91;96.72;102763.13;4951277;28;20585;-79
2023/05/17 06:57:30;;;;;;;6.65;1.95;;;;;;;8.94;94.52;102773.66;4959544;28;20634;-80
2023/05/17 07:00:15;;;;;;;3.70;0.90;;;;;;;9.00;95.84;102775.38;4961959;28;20049;-78
2023/05/17 07:03:01;;;;;;;9.65;1.65;;;;;;;9.08;96.63;102776.19;4963174;28;20421;-79
2023/05/17 07:05:45;;;;;;;2.30;1.10;;;;;;;9.29;94.99;102776.00;4961715;28;20102;-78
2023/05/17 07:08:29;;;;;;;3.25;1.40;;;;;;;9.59;91.87;102781.91;4966168;28;20146;-78
2023/05/17 07:11:13;;;;;;;6.50;1.30;;;;;;;9.76;88.36;102771.16;4965037;28;20551;-78
2023/05/17 07:13:57;;;;;;;8.43;1.30;;;;;;;9.84;89.97;102781.63;4981834;28;20765;-83
2023/05/17 07:16:44;;;;;;;5.47;1.10;;;;;;;9.89;88.04;102780.69;4980539;28;20046;-76
2023/05/17 07:19:28;;;;;;;5.70;1.40;;;;;;;9.94;89.09;102778.00;4979176;28;20072;-76
2023/05/17 07:22:12;;;;;;;6.57;1.33;;;;;;;9.93;86.39;102776.25;4966760;28;20053;-76
2023/05/17 07:24:58;;;;;;;9.38;1.35;;;;;;;9.94;88.88;102779.75;4962619;28;20057;-76
2023/05/17 07:27:42;;;;;;;5.32;1.00;;;;;;;10.14;90.27;102793.59;4975528;28;20060;-76
2023/05/17 07:30:26;;;;;;;3.85;1.15;;;;;;;10.35;87.76;102788.94;4980838;28;20061;-76
2023/05/17 07:33:16;;;;;;;4.90;1.05;;;;;;;10.53;88.12;102792.28;4973436;28;20390;-76
2023/05/17 07:36:00;;;;;;;6.25;1.58;;;;;;;10.70;84.61;102790.25;4975072;28;20062;-76
2023/05/17 07:38:46;;;;;;;4.57;1.25;;;;;;;10.61;84.62;102803.63;4948630;28;21782;-76
2023/05/17 07:41:32;;;;;;;7.13;1.23;;;;;;;10.55;86.40;102811.66;4978099;28;20105;-77
2023/05/17 07:44:16;;;;;;;6.60;1.20;;;;;;;10.71;86.53;102804.38;4960696;28;20061;-76
2023/05/17 07:47:00;;;;;;;3.80;1.20;;;;;;;10.86;85.71;102805.91;4962687;28;20070;-76
2023/05/17 07:49:45;;;;;;;3.08;1.02;;;;;;;10.84;84.84;102802.44;4962394;28;20044;-76
2023/05/17 07:52:29;;;;;;;3.55;1.17;;;;;;;10.81;84.73;102818.34;4975765;28;20120;-77
2023/05/17 07:55:13;;;;;;;6.28;1.33;;;;;;;10.77;82.70;102817.53;4975982;28;20152;-76
2023/05/17 07:57:57;;;;;;;6.18;1.35;;;;;;;10.72;84.76;102817.59;4972873;28;20116;-75
2023/05/17 08:00:41;;;;;;;5.28;1.02;;;;;;;10.63;83.43;102809.78;4960969;28;20111;-75
2023/05/17 08:03:27;;;;;;;4.10;1.10;;;;;;;10.63;83.72;102812.44;4968204;28;20132;-76
2023/05/17 08:06:11;;;;;;;5.97;1.13;;;;;;;10.62;83.10;102815.97;4975483;28;20217;-75
2023/05/17 08:08:55;;;;;;;3.70;1.00;;;;;;;10.59;83.18;102818.66;4946087;28;20080;-73
2023/05/17 08:11:44;;;;;;;3.28;1.02;;;;;;;10.54;83.64;102809.91;4971552;28;20049;-74
2023/05/17 08:14:28;;;;;;;5.10;1.00;;;;;;;10.57;82.85;102817.81;4971569;28;20108;-75
2023/05/17 08:17:12;;;;;;;4.57;1.23;;;;;;;10.54;81.92;102810.78;4974426;28;20104;-75
2023/05/17 08:19:57;;;;;;;8.02;1.33;;;;;;;10.51;84.08;102821.41;4977511;28;20180;-81
2023/05/17 08:22:41;;;;;;;6.38;1.25;;;;;;;10.52;84.32;102823.16;4980758;28;20311;-83
2023/05/17 08:25:25;;;;;;;7.82;1.50;;;;;;;10.53;84.37;102826.69;4971865;28;20116;-74
2023/05/17 08:28:12;;;;;;;5.18;1.30;;;;;;;10.49;83.56;102840.88;4966909;28;20100;-78
2023/05/17 08:30:57;;;;;;;8.00;1.30;;;;;;;10.41;85.37;102828.56;4966685;28;20053;-74
2023/05/17 08:33:41;;;;;;;5.03;1.13;;;;;;;10.33;85.70;102833.97;4968946;28;20096;-76
2023/05/17 08:36:25;;;;;;;6.38;1.23;;;;;;;10.22;85.45;102829.69;4972762;28;20048;-78
2023/05/17 08:39:10;;;;;;;7.30;1.30;;;;;;;10.04;86.73;102843.13;4941219;28;20053;-77
2023/05/17 08:41:58;;;;;;;6.95;1.33;;;;;;;9.97;87.87;102838.78;4938401;28;20045;-76
2023/05/17 08:44:43;;;;;;;8.05;1.50;;;;;;;9.94;88.75;102835.31;4968964;28;20073;-76
2023/05/17 08:47:30;;;;;;;7.93;1.58;;;;;;;9.96;88.77;102839.69;4952836;28;20853;-76
2023/05/17 08:50:16;;;;;;;3.80;1.50;;;;;;;9.98;89.35;102848.47;4965463;28;20046;-76
2023/05/17 08:53:01;;;;;;;9.18;1.95;;;;;;;9.98;90.12;102851.13;4972457;28;20144;-76
2023/05/17 08:55:47;;;;;;;5.20;1.30;;;;;;;10.02;89.11;102849.34;4968017;28;20325;-76
2023/05/17 08:58:36;;;;;;;6.45;1.50;;;;;;;10.16;90.48;102839.50;4966213;28;20156;-77
2023/05/17 09:01:20;;;;;;;4.22;1.55;;;;;;;10.46;89.72;102847.97;4965447;28;20107;-79
2023/05/17 09:04:08;;;;;;;5.90;1.55;;;;;;;10.75;88.84;102844.94;4968402;28;20057;-76
2023/05/17 09:06:52;;;;;;;6.90;1.55;;;;;;;10.85;87.37;102850.06;4971386;28;20040;-77
2023/05/17 09:09:40;;;;;;;5.63;1.38;;;;;;;10.92;87.53;102850.88;4965429;28;22368;-75
2023/05/17 09:12:25;;;;;;;6.45;1.40;;;;;;;10.88;87.80;102851.81;4947507;28;20042;-75
2023/05/17 09:15:21;;;;;;;8.98;1.45;;;;;;;10.73;85.83;102851.13;4971705;28;20112;-76
2023/05/17 09:18:10;;;;;;;7.88;1.15;;;;;;;10.65;82.19;102860.97;4973336;28;20223;-76
2023/05/17 09:20:54;;;;;;;2.67;1.00;;;;;;;10.57;83.42;102858.41;4970345;28;20129;-74
2023/05/17 09:23:38;;;;;;;1.48;0.88;;;;;;;10.74;84.51;102854.69;4964060;28;20081;-75
2023/05/17 09:26:45;;;;;;;4.07;1.45;;;;;;;11.04;80.77;102862.16;4975539;28;20066;-78
2023/05/17 09:29:37;;;;;;;6.40;1.40;;;;;;;11.52;83.12;102859.66;4974616;28;20081;-77
2023/05/17 09:32:23;;;;;;;9.45;1.60;;;;;;;11.74;81.78;102853.97;4953380;28;20057;-77
2023/05/17 09:35:16;;;;;;;3.42;1.10;;;;;;;11.80;79.57;102869.78;4981662;28;20134;-88
2023/05/17 09:38:10;;;;;;;5.05;1.10;;;;;;;11.68;74.89;102868.19;4969361;28;20054;-89
2023/05/17 09:40:57;;;;;;;4.25;1.30;;;;;;;11.55;79.12;102864.88;4952655;28;20658;-83
2023/05/17 09:43:41;;;;;;;8.57;1.20;;;;;;;11.46;79.85;102865.06;4969229;28;20488;-83
2023/05/17 09:46:27;;;;;;;4.10;1.20;;;;;;;11.39;79.06;102866.06;4971353;28;20185;-88
2023/05/17 09:49:14;;;;;;;5.32;1.10;;;;;;;11.28;79.15;102866.25;4970018;28;20042;-87
2023/05/17 09:52:09;;;;;;;3.25;0.90;;;;;;;11.26;76.71;102871.56;4969609;28;20885;-80
2023/05/17 09:54:55;;;;;;;6.70;1.27;;;;;;;11.39;77.53;102880.19;4983863;28;20108;-86
2023/05/17 09:57:40;;;;;;;4.90;1.35;;;;;;;11.39;76.50;102882.84;4966635;28;20081;-87
2023/05/17 10:00:29;;;;;;;3.67;1.15;;;;;;;11.33;76.33;102890.03;4976403;28;20143;-86
2023/05/17 10:03:14;;;;;;;5.15;1.83;;;;;;;11.38;75.48;102882.84;4982519;28;20057;-84
2023/05/17 10:06:00;;;;;;;3.67;0.98;;;;;;;11.51;72.64;102873.78;4974092;28;20062;-86
2023/05/17 10:08:46;;;;;;;2.90;0.90;;;;;;;11.52;73.94;102879.97;4970333;28;20037;-82
2023/05/17 10:11:33;;;;;;;4.10;1.17;;;;;;;11.54;71.70;102880.81;4978696;28;20453;-76
2023/05/17 10:14:23;;;;;;;4.38;1.40;;;;;;;11.54;68.21;102887.03;4977170;28;20092;-74
2023/05/17 10:17:07;;;;;;;3.20;0.90;;;;;;;11.46;70.47;102894.22;4957479;28;20049;-75
2023/05/17 10:19:52;;;;;;;3.03;0.73;;;;;;;11.42;71.35;102889.88;4973519;28;20698;-77
2023/05/17 10:22:37;;;;;;;1.45;0.73;;;;;;;11.40;70.20;102891.69;4963307;28;20105;-75
2023/05/17 10:25:21;;;;;;;3.35;1.10;;;;;;;11.45;70.07;102888.94;4965897;28;20104;-77
2023/05/17 10:28:06;;;;;;;4.03;1.05;;;;;;;11.61;69.56;102879.81;4978409;28;20159;-76
2023/05/17 10:30:52;;;;;;;3.17;1.30;;;;;;;11.75;70.44;102887.53;4965650;28;20164;-75
2023/05/17 10:33:38;;;;;;;2.85;0.90;;;;;;;11.72;65.50;102887.59;4966283;28;20519;-75
2023/05/17 10:36:23;;;;;;;3.83;1.15;;;;;;;11.61;67.79;102881.63;4962412;28;20695;-76
2023/05/17 10:39:07;;;;;;;4.80;1.10;;;;;;;11.71;68.99;102891.13;4976616;28;20113;-75
2023/05/17 10:41:53;;;;;;;4.22;1.10;;;;;;;11.62;66.51;102888.66;4950853;28;20045;-76
2023/05/17 10:44:40;;;;;;;6.95;1.30;;;;;;;11.53;66.17;102898.53;4963358;28;20512;-74
2023/05/17 10:47:32;;;;;;;4.07;1.40;;;;;;;11.47;67.46;102895.97;4980474;28;20096;-76
2023/05/17 10:50:21;;;;;;;4.68;1.20;;;;;;;11.47;68.31;102900.41;4976944;28;20524;-75
2023/05/17 10:53:09;;;;;;;2.30;1.17;;;;;;;11.46;71.48;102902.19;4976845;28;20093;-78
2023/05/17 10:55:53;;;;;;;3.38;0.95;;;;;;;11.55;72.48;102906.44;4963643;28;20099;-76
2023/05/17 10:58:40;;;;;;;5.50;1.33;;;;;;;11.59;71.30;102913.47;4975206;28;20094;-77
2023/05/17 11:01:50;;;;;;;4.50;1.40;;;;;;;11.47;68.89;102914.56;4959143;28;21040;-77
2023/05/17 11:04:40;;;;;;;4.47;1.20;;;;;;;11.43;72.23;102910.19;4976223;28;20564;-75
2023/05/17 11:07:28;;;;;;;4.25;1.15;;;;;;;11.42;71.41;102911.09;4962368;28;20130;-78
2023/05/17 11:10:13;;;;;;;4.55;1.45;;;;;;;11.40;72.75;102903.16;4974297;28;20045;-74
2023/05/17 11:12:57;;;;;;;6.45;1.27;;;;;;;11.36;72.49;102905.88;4975130;28;20065;-77
2023/05/17 11:15:44;;;;;;;6.55;1.10;;;;;;;11.33;72.94;102908.59;4972414;28;20093;-76
2023/05/17 11:18:45;;;;;;;3.97;1.20;;;;;;;11.27;74.13;102899.81;4976251;28;20085;-77
2023/05/17 11:21:30;;;;;;;5.25;1.08;;;;;;;11.27;74.62;102905.13;4976414;28;20914;-78
2023/05/17 11:24:25;;;;;;;5.22;1.30;;;;;;;11.22;74.94;102904.31;4976535;28;20056;-77
2023/05/17 11:27:12;;;;;;;3.88;1.27;;;;;;;11.12;75.27;102902.72;4972967;28;20511;-76
2023/05/17 11:29:59;;;;;;;5.00;1.23;;;;;;;11.19;76.28;102907.03;4965275;28;20048;-77
2023/05/17 11:32:46;;;;;;;5.25;1.55;;;;;;;11.43;76.41;102902.22;4964252;28;20036;-76
2023/05/17 11:35:35;;;;;;;6.45;1.33;;;;;;;11.53;76.29;102893.22;4964114;28;20235;-77
2023/05/17 11:38:26;;;;;;;5.68;1.30;;;;;;;11.53;76.10;102895.88;4965368;28;20560;-78
2023/05/17 11:41:21;;;;;;;4.90;1.25;;;;;;;11.49;75.48;102895.97;4977406;28;20057;-78
2023/05/17 11:44:05;;;;;;;6.47;1.40;;;;;;;11.43;75.67;102901.38;4983551;28;20517;-82
2023/05/17 11:46:52;;;;;;;6.03;1.30;;;;;;;11.41;76.29;102893.44;4983040;28;20117;-82
2023/05/17 11:49:41;;;;;;;3.38;1.38;;;;;;;11.43;77.92;102901.38;4969013;28;20128;-82
2023/05/17 11:52:26;;;;;;;5.47;1.65;;;;;;;11.60;78.68;102898.44;4990678;28;20072;-83
2023/05/17 11:55:15;;;;;;;4.20;1.30;;;;;;;11.65;76.85;102892.13;5006398;28;20064;-83
2023/05/17 11:58:02;;;;;;;3.40;1.08;;;;;;;11.70;77.26;102893.84;4987540;28;20139;-80
2023/05/17 12:01:00;;;;;;;6.10;1.25;;;;;;;11.81;74.84;102890.09;4982053;28;20203;-82
2023/05/17 12:03:46;;;;;;;2.90;1.15;;;;;;;11.89;77.25;102886.41;4998806;28;22050;-82
2023/05/17 12:06:31;;;;;;;3.10;1.13;;;;;;;12.07;76.16;102894.09;5000329;28;20048;-80
2023/05/17 12:09:16;;;;;;;6.18;1.27;;;;;;;12.05;75.27;102898.53;4987197;28;20056;-84
2023/05/17 12:12:04;;;;;;;7.32;1.20;;;;;;;12.01;74.40;102888.84;4988279;28;20138;-78
2023/05/17 12:14:49;;;;;;;3.83;1.15;;;;;;;11.89;73.77;102875.81;5000183;28;20464;-83
2023/05/17 12:17:41;;;;;;;3.08;1.20;;;;;;;11.91;73.02;102884.59;4971340;28;20044;-80
2023/05/17 12:20:25;;;;;;;6.28;1.00;;;;;;;12.01;75.08;102888.84;4996547;28;20060;-77
2023/05/17 12:23:09;;;;;;;6.65;1.27;;;;;;;11.94;72.71;102885.41;4984605;28;20119;-79
2023/05/17 12:26:02;;;;;;;8.85;1.60;;;;;;;11.83;72.74;102884.75;4999745;28;20052;-78
2023/05/17 12:28:57;;;;;;;5.07;1.15;;;;;;;11.85;72.81;102893.56;5000764;28;20044;-77
2023/05/17 12:31:47;;;;;;;2.58;1.20;;;;;;;11.99;74.86;102885.31;4965055;28;20123;-77
2023/05/17 12:34:31;;;;;;;4.88;1.15;;;;;;;12.11;74.37;102886.03;4970304;28;20040;-76
2023/05/17 12:37:18;;;;;;;3.92;1.20;;;;;;;12.06;69.33;102884.38;4967539;28;20107;-77
2023/05/17 12:40:04;;;;;;;3.42;1.30;;;;;;;11.97;72.65;102883.63;4962148;28;20128;-76
2023/05/17 12:43:02;;;;;;;6.55;1.00;;;;;;;12.03;68.13;102876.44;4987002;28;20127;-78
2023/05/17 12:45:47;;;;;;;3.25;1.10;;;;;;;12.13;72.82;102879.81;4990248;28;20061;-76
2023/05/17 12:48:35;;;;;;;3.35;1.15;;;;;;;12.25;73.03;102878.69;4982374;28;20637;-77
2023/05/17 12:51:24;;;;;;;4.45;1.15;;;;;;;12.35;71.81;102882.91;4975051;28;20053;-78
2023/05/17 12:54:12;;;;;;;3.88;0.98;;;;;;;12.30;71.02;102887.44;4985870;28;20097;-76
2023/05/17 12:57:05;;;;;;;4.15;1.20;;;;;;;12.19;71.76;102892.97;4985227;28;20049;-78